createdAt,value
2018-01-30T00:02:03.895Z,28.50
2018-01-30T00:04:31.731Z,26.20
2018-01-30T00:06:59.603Z,28.53
2018-01-30T00:09:27.497Z,25.30
2018-01-30T00:11:55.338Z,27.13
2018-01-30T00:14:23.174Z,27.13
2018-01-30T00:16:51.060Z,26.93
2018-01-30T00:19:19.758Z,26.40
2018-01-30T00:21:47.604Z,24.13
2018-01-30T00:24:15.606Z,25.00
2018-01-30T00:26:43.517Z,29.00
2018-01-30T00:29:11.349Z,27.20
2018-01-30T00:31:40.129Z,29.50
2018-01-30T00:34:08.085Z,28.60
2018-01-30T00:36:36.340Z,29.00
2018-01-30T00:39:04.315Z,31.23
2018-01-30T00:41:33.472Z,29.17
2018-01-30T00:44:01.304Z,29.63
2018-01-30T00:46:29.490Z,28.07
2018-01-30T00:48:57.322Z,26.43
2018-01-30T00:51:25.177Z,29.07
2018-01-30T00:53:53.074Z,26.57
2018-01-30T00:56:20.914Z,25.60
2018-01-30T00:58:48.743Z,31.53
2018-01-30T01:01:16.640Z,32.63
2018-01-30T01:03:44.490Z,27.37
2018-01-30T01:06:12.331Z,34.57
2018-01-30T01:08:40.215Z,38.50
2018-01-30T01:11:08.051Z,36.27
2018-01-30T01:13:35.879Z,40.77
2018-01-30T01:16:04.725Z,35.47
2018-01-30T01:18:32.578Z,37.70
2018-01-30T01:21:00.518Z,34.20
2018-01-30T01:23:28.959Z,34.40
2018-01-30T01:25:56.799Z,30.37
2018-01-30T01:28:24.642Z,30.83
2018-01-30T01:30:52.538Z,27.00
2018-01-30T01:33:20.378Z,35.70
2018-01-30T01:35:48.370Z,40.80
2018-01-30T01:38:16.258Z,33.07
2018-01-30T01:40:44.091Z,31.20
2018-01-30T01:43:11.923Z,27.70
2018-01-30T01:45:39.819Z,25.80
2018-01-30T01:48:07.652Z,29.17
2018-01-30T01:50:35.478Z,25.13
2018-01-30T01:53:03.406Z,26.77
2018-01-30T01:55:31.254Z,26.97
2018-01-30T01:57:59.082Z,27.30
2018-01-30T02:00:27.002Z,24.40
2018-01-30T02:02:55.758Z,24.03
2018-01-30T02:05:23.590Z,26.30
2018-01-30T02:07:51.774Z,23.93
2018-01-30T02:10:19.616Z,25.10
2018-01-30T02:12:48.119Z,29.20
2018-01-30T02:15:16.094Z,28.93
2018-01-30T02:17:43.942Z,33.03
2018-01-30T02:20:11.851Z,28.73
2018-01-30T02:22:39.983Z,28.13
2018-01-30T02:25:07.843Z,28.40
2018-01-30T02:27:35.754Z,31.47
2018-01-30T02:30:03.659Z,30.20
2018-01-30T02:32:31.497Z,29.27
2018-01-30T02:34:59.374Z,31.70
2018-01-30T02:37:27.358Z,30.27
2018-01-30T02:39:55.198Z,27.77
2018-01-30T02:42:23.762Z,27.90
2018-01-30T02:44:51.677Z,27.80
2018-01-30T02:47:19.513Z,28.33
2018-01-30T02:49:47.338Z,26.83
2018-01-30T02:52:15.251Z,30.80
2018-01-30T02:54:43.646Z,27.17
2018-01-30T02:57:11.477Z,27.63
2018-01-30T02:59:39.359Z,26.67
2018-01-30T03:02:07.198Z,27.83
2018-01-30T03:04:35.049Z,24.57
2018-01-30T03:07:04.384Z,24.50
2018-01-30T03:09:32.215Z,28.70
2018-01-30T03:12:00.063Z,26.67
2018-01-30T03:14:27.969Z,25.10
2018-01-30T03:16:55.814Z,24.63
2018-01-30T03:19:23.645Z,26.60
2018-01-30T03:21:53.586Z,34.23
2018-01-30T03:24:21.420Z,29.30
2018-01-30T03:26:49.275Z,29.53
2018-01-30T03:29:17.401Z,29.97
2018-01-30T03:31:45.294Z,28.50
2018-01-30T03:34:13.122Z,28.37
2018-01-30T03:36:41.931Z,23.50
2018-01-30T03:39:09.843Z,25.23
2018-01-30T03:41:38.067Z,22.50
2018-01-30T03:44:05.959Z,23.50
2018-01-30T03:46:33.786Z,24.10
2018-01-30T03:49:01.630Z,26.63
2018-01-30T03:51:29.515Z,23.33
2018-01-30T03:53:57.348Z,25.93
2018-01-30T03:56:25.282Z,24.67
2018-01-30T03:58:53.928Z,27.53
2018-01-30T04:01:21.768Z,26.97
2018-01-30T04:03:49.614Z,26.93
2018-01-30T04:06:17.520Z,25.43
2018-01-30T04:08:45.363Z,27.03
2018-01-30T04:11:13.218Z,26.47
2018-01-30T04:13:41.506Z,26.90
2018-01-30T04:16:09.390Z,29.13
2018-01-30T04:18:37.221Z,33.60
2018-01-30T04:21:05.143Z,33.57
2018-01-30T04:23:32.982Z,29.87
2018-01-30T04:26:00.818Z,28.77
2018-01-30T04:28:29.176Z,22.07
2018-01-30T04:30:57.034Z,25.23
2018-01-30T04:33:24.892Z,26.30
2018-01-30T04:35:52.777Z,25.00
2018-01-30T04:38:20.618Z,24.70
2018-01-30T04:40:49.022Z,28.33
2018-01-30T04:43:16.927Z,25.20
2018-01-30T04:45:44.759Z,24.93
2018-01-30T04:48:16.142Z,27.63
2018-01-30T04:50:44.011Z,23.50
2018-01-30T04:53:11.846Z,27.07
2018-01-30T04:55:39.689Z,28.17
2018-01-30T04:58:07.578Z,27.87
2018-01-30T05:00:35.482Z,27.47
2018-01-30T05:03:03.331Z,27.47
2018-01-30T05:05:31.217Z,29.10
2018-01-30T05:07:59.151Z,26.67
2018-01-30T05:10:27.007Z,27.23
2018-01-30T05:12:54.967Z,27.57
2018-01-30T05:15:22.815Z,29.33
2018-01-30T05:17:50.642Z,27.80
2018-01-30T05:20:18.633Z,27.77
2018-01-30T05:22:46.483Z,28.60
2018-01-30T05:25:14.319Z,29.43
2018-01-30T05:27:42.208Z,31.13
2018-01-30T05:30:10.142Z,33.30
2018-01-30T05:32:37.982Z,31.13
2018-01-30T05:35:06.159Z,32.10
2018-01-30T05:37:34.013Z,36.57
2018-01-30T05:40:01.878Z,35.93
2018-01-30T05:42:29.867Z,34.30
2018-01-30T05:44:57.735Z,30.83
2018-01-30T05:47:25.594Z,36.07
2018-01-30T05:49:53.489Z,36.20
2018-01-30T05:52:21.319Z,38.67
2018-01-30T05:54:49.711Z,33.73
2018-01-30T05:57:17.630Z,34.97
2018-01-30T05:59:45.487Z,41.53
2018-01-30T06:02:13.339Z,39.83
2018-01-30T06:04:41.206Z,36.93
2018-01-30T06:07:09.039Z,39.53
2018-01-30T06:09:36.880Z,45.23
2018-01-30T06:12:05.080Z,40.37
2018-01-30T06:14:32.930Z,39.83
2018-01-30T06:17:00.782Z,45.60
2018-01-30T06:19:28.842Z,43.40
2018-01-30T06:21:56.727Z,44.63
2018-01-30T06:24:24.599Z,44.27
2018-01-30T06:26:52.474Z,46.90
2018-01-30T06:29:20.326Z,47.37
2018-01-30T06:31:48.194Z,50.07
2018-01-30T06:34:16.515Z,49.90
2018-01-30T06:36:44.464Z,57.13
2018-01-30T06:39:12.324Z,53.27
2018-01-30T06:41:40.219Z,53.80
2018-01-30T06:44:08.143Z,52.43
2018-01-30T06:46:35.990Z,63.77
2018-01-30T06:49:03.906Z,55.60
2018-01-30T06:51:31.773Z,55.13
2018-01-30T06:53:59.607Z,52.37
2018-01-30T06:56:27.499Z,49.93
2018-01-30T06:58:55.348Z,50.60
2018-01-30T07:01:23.197Z,54.33
2018-01-30T07:03:51.144Z,58.53
2018-01-30T07:06:18.990Z,47.10
2018-01-30T07:08:46.875Z,56.60
2018-01-30T07:11:14.885Z,57.53
2018-01-30T07:13:42.796Z,59.87
2018-01-30T07:16:10.718Z,72.87
2018-01-30T07:18:38.602Z,51.53
2018-01-30T07:21:06.446Z,52.07
2018-01-30T07:23:34.331Z,54.83
2018-01-30T07:26:02.428Z,52.03
2018-01-30T07:28:30.274Z,45.87
2018-01-30T07:30:58.125Z,42.53
2018-01-30T07:33:26.012Z,43.13
2018-01-30T07:35:53.859Z,42.80
2018-01-30T07:38:21.701Z,44.57
2018-01-30T07:40:49.599Z,46.23
2018-01-30T07:43:17.436Z,45.03
2018-01-30T07:45:46.338Z,51.07
2018-01-30T07:48:14.309Z,46.43
2018-01-30T07:50:42.514Z,40.13
2018-01-30T07:53:10.354Z,44.83
2018-01-30T07:55:38.251Z,42.10
2018-01-30T07:58:06.110Z,42.43
2018-01-30T08:00:33.962Z,38.70
2018-01-30T08:03:02.767Z,42.23
2018-01-30T08:05:30.627Z,36.37
2018-01-30T08:07:58.487Z,37.00
2018-01-30T08:10:26.400Z,35.10
2018-01-30T08:12:54.240Z,40.17
2018-01-30T08:15:22.088Z,35.30
2018-01-30T08:17:49.990Z,33.20
2018-01-30T08:20:17.826Z,32.17
2018-01-30T08:22:45.658Z,34.63
2018-01-30T08:25:13.901Z,27.07
2018-01-30T08:27:41.844Z,34.43
2018-01-30T08:30:09.723Z,33.83
2018-01-30T08:32:38.233Z,31.13
2018-01-30T08:35:06.090Z,30.83
2018-01-30T08:37:33.934Z,29.23
2018-01-30T08:40:01.847Z,24.90
2018-01-30T08:42:30.463Z,24.67
2018-01-30T08:44:58.327Z,26.33
2018-01-30T08:47:26.354Z,28.10
2018-01-30T08:49:54.182Z,30.60
2018-01-30T08:52:22.974Z,27.00
2018-01-30T08:54:50.878Z,26.00
2018-01-30T08:57:18.757Z,25.03
2018-01-30T08:59:47.134Z,27.50
2018-01-30T09:02:15.027Z,29.33
2018-01-30T09:04:42.856Z,26.00
2018-01-30T09:07:10.706Z,23.70
2018-01-30T09:09:38.598Z,25.60
2018-01-30T09:12:06.467Z,25.43
2018-01-30T09:14:34.375Z,25.83
2018-01-30T09:17:02.259Z,22.27
2018-01-30T09:19:30.118Z,25.73
2018-01-30T09:21:57.971Z,25.80
2018-01-30T09:24:25.954Z,22.13
2018-01-30T09:26:53.798Z,25.03
2018-01-30T09:29:21.642Z,21.73
2018-01-30T09:31:49.551Z,27.43
2018-01-30T09:34:17.428Z,21.77
2018-01-30T09:36:45.259Z,24.20
2018-01-30T09:39:13.179Z,22.73
2018-01-30T09:41:41.059Z,20.37
2018-01-30T09:44:08.923Z,20.73
2018-01-30T09:46:37.026Z,22.47
2018-01-30T09:49:05.039Z,19.30
2018-01-30T09:51:32.896Z,18.73
2018-01-30T09:54:00.826Z,22.40
2018-01-30T09:56:28.699Z,16.57
2018-01-30T09:58:56.539Z,17.93
2018-01-30T10:01:24.787Z,19.60
2018-01-30T10:03:52.696Z,19.17
2018-01-30T10:06:20.564Z,16.53
2018-01-30T10:08:48.475Z,17.20
2018-01-30T10:11:16.506Z,14.87
2018-01-30T10:13:44.365Z,13.13
2018-01-30T10:16:12.282Z,14.00
2018-01-30T10:18:40.144Z,13.47
2018-01-30T10:21:08.031Z,13.27
2018-01-30T10:23:36.364Z,13.67
2018-01-30T10:26:04.214Z,12.53
2018-01-30T10:28:32.056Z,11.77
2018-01-30T10:31:00.122Z,12.17
2018-01-30T10:33:27.994Z,12.03
2018-01-30T10:35:55.861Z,12.73
2018-01-30T10:38:23.793Z,12.57
2018-01-30T10:40:51.718Z,12.67
2018-01-30T10:43:19.678Z,16.63
2018-01-30T10:45:47.567Z,15.80
2018-01-30T10:48:15.458Z,13.00
2018-01-30T10:50:43.411Z,11.17
2018-01-30T10:53:11.359Z,15.30
2018-01-30T10:55:39.218Z,13.13
2018-01-30T10:58:07.080Z,14.20
2018-01-30T11:00:35.023Z,13.73
2018-01-30T11:03:02.878Z,12.13
2018-01-30T11:05:30.737Z,12.90
2018-01-30T11:07:58.680Z,11.60
2018-01-30T11:10:26.540Z,12.83
2018-01-30T11:12:54.486Z,12.73
2018-01-30T11:15:22.384Z,12.73
2018-01-30T11:17:50.271Z,11.30
2018-01-30T11:20:18.179Z,14.73
2018-01-30T11:22:46.089Z,14.10
2018-01-30T11:25:13.956Z,12.57
2018-01-30T11:27:41.827Z,10.48
2018-01-30T11:30:09.752Z,11.82
2018-01-30T11:32:37.642Z,13.90
2018-01-30T11:35:05.547Z,10.65
2018-01-30T11:37:33.452Z,10.68
2018-01-30T11:40:01.319Z,12.35
2018-01-30T11:42:29.198Z,14.38
2018-01-30T11:44:57.099Z,11.85
2018-01-30T11:47:24.972Z,11.82
2018-01-30T11:49:52.834Z,10.68
2018-01-30T11:54:49.004Z,9.43
2018-01-30T11:57:17.294Z,10.68
2018-01-30T11:59:45.219Z,8.38
2018-01-30T12:02:13.140Z,12.75
2018-01-30T12:04:41.034Z,13.40
2018-01-30T12:07:08.930Z,13.50
2018-01-30T12:09:36.806Z,11.07
2018-01-30T12:12:04.682Z,10.50
2018-01-30T12:14:33.024Z,9.25
2018-01-30T12:17:00.896Z,11.52
2018-01-30T12:19:28.778Z,11.93
2018-01-30T12:21:56.766Z,12.05
2018-01-30T12:24:24.627Z,10.27
2018-01-30T12:26:52.520Z,8.73
2018-01-30T12:29:20.803Z,9.38
2018-01-30T12:31:48.663Z,10.93
2018-01-30T12:34:16.543Z,8.25
2018-01-30T12:36:44.474Z,8.27
2018-01-30T12:39:12.310Z,11.73
2018-01-30T12:41:40.153Z,13.02
2018-01-30T12:44:08.133Z,11.60
2018-01-30T12:46:36.013Z,11.82
2018-01-30T12:49:03.875Z,7.20
2018-01-30T12:51:31.774Z,7.68
2018-01-30T12:53:59.691Z,22.60
2018-01-30T12:56:27.530Z,7.07
2018-01-30T12:58:55.422Z,3.35
2018-01-30T13:01:23.263Z,4.22
2018-01-30T13:03:51.603Z,11.45
2018-01-30T13:06:19.503Z,10.23
2018-01-30T13:08:47.358Z,3.17
2018-01-30T13:11:15.211Z,8.90
2018-01-30T13:13:43.111Z,2.75
2018-01-30T13:16:10.933Z,8.65
2018-01-30T13:18:38.786Z,4.80
2018-01-30T13:21:06.958Z,3.80
2018-01-30T13:23:34.791Z,6.05
2018-01-30T13:26:02.622Z,9.27
2018-01-30T13:28:30.566Z,4.13
2018-01-30T13:30:58.431Z,6.15
2018-01-30T13:33:26.270Z,5.87
2018-01-30T13:35:54.155Z,13.17
2018-01-30T13:38:22.023Z,3.20
2018-01-30T13:40:49.889Z,20.03
2018-01-30T13:43:19.351Z,3.50
2018-01-30T13:45:48.546Z,4.03
2018-01-30T13:48:17.891Z,3.90
2018-01-30T13:50:46.861Z,3.80
2018-01-30T13:53:15.820Z,4.28
2018-01-30T13:55:44.632Z,6.65
2018-01-30T13:58:13.662Z,4.78
2018-01-30T14:00:41.519Z,3.45
2018-01-30T14:03:09.366Z,4.10
2018-01-30T14:05:37.290Z,8.93
2018-01-30T14:08:05.151Z,4.03
2018-01-30T14:10:32.991Z,12.10
2018-01-30T14:13:01.875Z,8.00
2018-01-30T14:15:29.755Z,3.43
2018-01-30T14:17:57.599Z,6.53
2018-01-30T14:20:25.555Z,5.10
2018-01-30T14:22:53.415Z,6.13
2018-01-30T14:25:21.239Z,5.20
2018-01-30T14:27:49.143Z,3.30
2018-01-30T14:30:17.234Z,5.63
2018-01-30T14:32:45.134Z,7.57
2018-01-30T14:35:13.289Z,3.13
2018-01-30T14:37:41.778Z,3.37
2018-01-30T14:40:09.694Z,2.73
2018-01-30T14:42:37.595Z,3.73
2018-01-30T14:45:05.451Z,3.30
2018-01-30T14:47:33.311Z,4.83
2018-01-30T14:50:02.216Z,4.63
2018-01-30T14:52:30.064Z,3.53
2018-01-30T14:54:57.919Z,4.70
2018-01-30T14:57:25.915Z,3.40
2018-01-30T14:59:53.752Z,3.07
2018-01-30T15:02:21.594Z,3.97
2018-01-30T15:04:49.502Z,3.30
2018-01-30T15:07:17.432Z,4.73
2018-01-30T15:09:45.286Z,3.03
2018-01-30T15:12:13.421Z,8.43
2018-01-30T15:14:41.256Z,7.43
2018-01-30T15:17:09.114Z,4.30
2018-01-30T15:19:37.050Z,7.30
2018-01-30T15:22:05.811Z,4.33
2018-01-30T15:24:33.681Z,4.93
2018-01-30T15:27:02.478Z,7.27
2018-01-30T15:29:30.322Z,4.23
2018-01-30T15:31:58.192Z,6.93
2018-01-30T15:34:26.106Z,7.27
2018-01-30T15:36:53.959Z,4.37
2018-01-30T15:39:21.814Z,9.47
2018-01-30T15:41:49.702Z,4.37
2018-01-30T15:44:17.588Z,6.33
2018-01-30T15:46:45.417Z,3.60
2018-01-30T15:49:13.294Z,8.37
2018-01-30T15:51:41.938Z,7.20
2018-01-30T15:54:10.729Z,4.93
2018-01-30T15:56:38.738Z,6.00
2018-01-30T15:59:06.666Z,4.03
2018-01-30T16:01:34.526Z,3.70
2018-01-30T16:04:02.403Z,5.73
2018-01-30T16:06:30.252Z,3.77
2018-01-30T16:08:58.098Z,3.30
2018-01-30T16:11:26.906Z,6.47
2018-01-30T16:13:54.746Z,5.67
2018-01-30T16:16:22.587Z,7.13
2018-01-30T16:18:50.500Z,8.90
2018-01-30T16:21:18.350Z,11.07
2018-01-30T16:23:46.219Z,4.70
2018-01-30T16:26:14.127Z,3.57
2018-01-30T16:28:41.998Z,7.47
2018-01-30T16:31:09.843Z,8.83
2018-01-30T16:33:38.751Z,18.93
2018-01-30T16:36:06.607Z,23.83
2018-01-30T16:38:34.438Z,12.50
2018-01-30T16:41:02.340Z,6.93
2018-01-30T16:43:30.187Z,9.37
2018-01-30T16:45:58.038Z,8.20
2018-01-30T16:48:25.967Z,8.03
2018-01-30T16:50:53.899Z,12.03
2018-01-30T16:53:21.805Z,12.30
2018-01-30T16:55:49.743Z,5.53
2018-01-30T16:58:17.629Z,11.20
2018-01-30T17:00:45.601Z,26.27
2018-01-30T17:03:13.491Z,4.90
2018-01-30T17:05:41.360Z,6.30
2018-01-30T17:08:09.207Z,14.60
2018-01-30T17:10:37.122Z,10.43
2018-01-30T17:13:04.971Z,3.70
2018-01-30T17:15:32.830Z,14.60
2018-01-30T17:18:00.732Z,6.50
2018-01-30T17:20:28.563Z,9.63
2018-01-30T17:22:56.410Z,4.97
2018-01-30T17:25:24.582Z,4.90
2018-01-30T17:27:52.604Z,2.90
2018-01-30T17:30:20.473Z,4.50
2018-01-30T17:32:48.886Z,10.43
2018-01-30T17:35:16.743Z,22.07
2018-01-30T17:37:44.600Z,15.07
2018-01-30T17:40:12.555Z,22.70
2018-01-30T17:42:40.419Z,7.60
2018-01-30T17:45:08.247Z,2.77
2018-01-30T17:47:36.151Z,18.33
2018-01-30T17:50:04.105Z,4.43
2018-01-30T17:52:31.947Z,5.47
2018-01-30T17:54:59.819Z,2.87
2018-01-30T17:57:28.489Z,2.23
2018-01-30T17:59:56.331Z,2.83
2018-01-30T18:02:24.395Z,5.47
2018-01-30T18:04:52.275Z,2.30
2018-01-30T18:07:20.116Z,25.40
2018-01-30T18:09:48.286Z,6.47
2018-01-30T18:12:16.169Z,5.53
2018-01-30T18:14:44.083Z,2.63
2018-01-30T18:17:11.946Z,5.50
2018-01-30T18:19:39.802Z,6.83
2018-01-30T18:22:07.652Z,9.27
2018-01-30T18:24:35.575Z,6.47
2018-01-30T18:27:03.526Z,2.73
2018-01-30T18:29:31.359Z,3.20
2018-01-30T18:31:59.240Z,3.60
2018-01-30T18:34:27.106Z,3.10
2018-01-30T18:36:54.947Z,6.30
2018-01-30T18:39:23.035Z,3.70
2018-01-30T18:41:50.866Z,5.43
2018-01-30T18:44:18.702Z,6.33
2018-01-30T18:46:46.590Z,4.63
2018-01-30T18:49:14.464Z,7.77
2018-01-30T18:51:42.318Z,5.43
2018-01-30T18:54:10.226Z,6.90
2018-01-30T18:56:38.074Z,10.70
2018-01-30T18:59:05.911Z,10.33
2018-01-30T19:01:33.844Z,5.13
2018-01-30T19:04:02.538Z,6.60
2018-01-30T19:06:30.388Z,4.60
2018-01-30T19:08:58.854Z,6.53
2018-01-30T19:11:26.705Z,7.43
2018-01-30T19:13:54.528Z,6.10
2018-01-30T19:16:22.681Z,10.07
2018-01-30T19:18:50.541Z,12.03
2018-01-30T19:21:19.043Z,7.80
2018-01-30T19:23:46.975Z,6.60
2018-01-30T19:26:14.839Z,7.70
2018-01-30T19:28:42.710Z,6.13
2018-01-30T19:31:10.621Z,6.90
2018-01-30T19:33:38.478Z,8.53
2018-01-30T19:36:06.310Z,5.87
2018-01-30T19:38:34.338Z,6.83
2018-01-30T19:41:02.187Z,7.13
2018-01-30T19:43:30.038Z,5.93
2018-01-30T19:45:57.968Z,5.77
2018-01-30T19:48:25.842Z,8.77
2018-01-30T19:50:53.690Z,7.20
2018-01-30T19:53:21.623Z,7.53
2018-01-30T19:55:49.498Z,6.13
2018-01-30T19:58:17.419Z,5.80
2018-01-30T20:00:45.350Z,5.97
2018-01-30T20:03:13.275Z,8.50
2018-01-30T20:05:41.442Z,4.60
2018-01-30T20:08:09.425Z,7.47
2018-01-30T20:10:37.391Z,4.50
2018-01-30T20:13:05.289Z,5.70
2018-01-30T20:15:33.257Z,5.80
2018-01-30T20:18:01.159Z,5.77
2018-01-30T20:20:29.136Z,6.70
2018-01-30T20:22:57.074Z,10.60
2018-01-30T20:25:25.020Z,5.07
2018-01-30T20:27:52.918Z,4.20
2018-01-30T20:30:21.485Z,4.17
2018-01-30T20:32:49.350Z,5.77
2018-01-30T20:35:17.323Z,3.90
2018-01-30T20:37:47.006Z,6.43
2018-01-30T20:40:15.227Z,4.90
2018-01-30T20:42:43.074Z,5.67
2018-01-30T20:45:11.028Z,4.30
2018-01-30T20:47:38.897Z,4.87
2018-01-30T20:50:06.763Z,5.97
2018-01-30T20:52:34.658Z,4.73
2018-01-30T20:55:02.502Z,5.03
2018-01-30T20:57:30.395Z,4.53
2018-01-30T20:59:58.603Z,5.27
2018-01-30T21:02:26.531Z,4.97
2018-01-30T21:04:54.428Z,3.43
2018-01-30T21:07:22.552Z,5.10
2018-01-30T21:09:50.435Z,5.00
2018-01-30T21:12:18.302Z,4.77
2018-01-30T21:14:46.307Z,3.57
2018-01-30T21:17:14.169Z,4.03
2018-01-30T21:19:42.107Z,3.87
2018-01-30T21:22:10.148Z,3.47
2018-01-30T21:24:38.095Z,4.53
2018-01-30T21:27:06.185Z,4.63
2018-01-30T21:29:34.368Z,4.53
2018-01-30T21:32:02.210Z,8.90
2018-01-30T21:34:30.049Z,5.07
2018-01-30T21:36:58.050Z,6.60
2018-01-30T21:39:25.964Z,5.80
2018-01-30T21:41:53.816Z,6.90
2018-01-30T21:44:22.075Z,9.53
2018-01-30T21:46:50.494Z,9.67
2018-01-30T21:49:18.424Z,7.10
2018-01-30T21:51:46.318Z,8.53
2018-01-30T21:54:18.398Z,7.77
2018-01-30T21:56:42.098Z,8.43
2018-01-30T21:59:09.991Z,16.27
2018-01-30T22:01:37.827Z,15.03
2018-01-30T22:04:05.669Z,10.63
2018-01-30T22:06:33.551Z,8.13
2018-01-30T22:09:01.479Z,6.97
2018-01-30T22:11:29.306Z,7.57
2018-01-30T22:13:57.220Z,6.40
2018-01-30T22:16:25.067Z,5.27
2018-01-30T22:18:52.939Z,4.77
2018-01-30T22:21:20.839Z,5.07
2018-01-30T22:23:48.702Z,3.80
2018-01-30T22:26:16.559Z,5.20
2018-01-30T22:28:45.424Z,9.03
2018-01-30T22:31:12.609Z,4.87
2018-01-30T22:33:40.453Z,4.23
2018-01-30T22:36:08.365Z,4.67
2018-01-30T22:38:36.240Z,4.37
2018-01-30T22:41:05.003Z,3.13
2018-01-30T22:43:32.994Z,3.53
2018-01-30T22:46:00.898Z,3.10
